sensor_id;sensor_type;location;lat;lon;timestamp;P1;durP1;ratioP1;P2;durP2;ratioP2
75810;SDS011;64449;50.016;19.954;2022-11-20T00:00:25;41.50;;;21.00;;
75810;SDS011;64449;50.016;19.954;2022-11-20T00:02:50;42.60;;;21.50;;
75810;SDS011;64449;50.016;19.954;2022-11-20T00:05:16;43.90;;;20.90;;
75810;SDS011;64449;50.016;19.954;2022-11-20T00:07:42;41.00;;;20.80;;
75810;SDS011;64449;50.016;19.954;2022-11-20T00:10:07;40.60;;;20.60;;
75810;SDS011;64449;50.016;19.954;2022-11-20T00:12:33;45.00;;;21.70;;
75810;SDS011;64449;50.016;19.954;2022-11-20T00:14:58;49.80;;;21.70;;
75810;SDS011;64449;50.016;19.954;2022-11-20T00:17:24;47.20;;;23.50;;
75810;SDS011;64449;50.016;19.954;2022-11-20T00:19:49;48.00;;;23.50;;
75810;SDS011;64449;50.016;19.954;2022-11-20T00:22:14;49.90;;;24.20;;
75810;SDS011;64449;50.016;19.954;2022-11-20T00:24:40;47.60;;;22.90;;
75810;SDS011;64449;50.016;19.954;2022-11-20T00:27:05;51.30;;;24.60;;
75810;SDS011;64449;50.016;19.954;2022-11-20T00:29:30;53.90;;;24.30;;
75810;SDS011;64449;50.016;19.954;2022-11-20T00:31:56;46.80;;;23.10;;
75810;SDS011;64449;50.016;19.954;2022-11-20T00:34:21;48.30;;;22.20;;
75810;SDS011;64449;50.016;19.954;2022-11-20T00:36:46;47.80;;;21.90;;
75810;SDS011;64449;50.016;19.954;2022-11-20T00:39:12;47.90;;;23.60;;
75810;SDS011;64449;50.016;19.954;2022-11-20T00:41:37;43.70;;;23.10;;
75810;SDS011;64449;50.016;19.954;2022-11-20T00:44:02;43.60;;;21.80;;
75810;SDS011;64449;50.016;19.954;2022-11-20T00:46:28;49.80;;;21.30;;
75810;SDS011;64449;50.016;19.954;2022-11-20T00:48:53;43.70;;;20.90;;
75810;SDS011;64449;50.016;19.954;2022-11-20T00:51:23;32.50;;;17.80;;
75810;SDS011;64449;50.016;19.954;2022-11-20T00:53:49;41.00;;;17.90;;
75810;SDS011;64449;50.016;19.954;2022-11-20T00:56:16;51.50;;;23.90;;
75810;SDS011;64449;50.016;19.954;2022-11-20T00:58:45;44.20;;;22.10;;
75810;SDS011;64449;50.016;19.954;2022-11-20T01:01:12;47.00;;;22.70;;
75810;SDS011;64449;50.016;19.954;2022-11-20T01:03:44;50.30;;;25.80;;
75810;SDS011;64449;50.016;19.954;2022-11-20T01:06:18;46.40;;;23.20;;
75810;SDS011;64449;50.016;19.954;2022-11-20T01:08:53;52.90;;;25.20;;
75810;SDS011;64449;50.016;19.954;2022-11-20T01:11:20;52.80;;;26.00;;
75810;SDS011;64449;50.016;19.954;2022-11-20T01:13:48;48.80;;;23.30;;
75810;SDS011;64449;50.016;19.954;2022-11-20T01:16:16;50.30;;;24.00;;
75810;SDS011;64449;50.016;19.954;2022-11-20T01:18:44;48.60;;;24.50;;
75810;SDS011;64449;50.016;19.954;2022-11-20T01:21:13;42.00;;;21.10;;
75810;SDS011;64449;50.016;19.954;2022-11-20T01:23:41;43.40;;;23.00;;
75810;SDS011;64449;50.016;19.954;2022-11-20T01:26:08;48.50;;;23.70;;
75810;SDS011;64449;50.016;19.954;2022-11-20T01:28:36;48.10;;;23.70;;
75810;SDS011;64449;50.016;19.954;2022-11-20T01:31:09;47.50;;;21.90;;
75810;SDS011;64449;50.016;19.954;2022-11-20T01:33:40;46.90;;;22.60;;
75810;SDS011;64449;50.016;19.954;2022-11-20T01:36:07;55.30;;;25.20;;
75810;SDS011;64449;50.016;19.954;2022-11-20T01:38:33;49.80;;;24.30;;
75810;SDS011;64449;50.016;19.954;2022-11-20T01:40:59;54.30;;;25.10;;
75810;SDS011;64449;50.016;19.954;2022-11-20T01:43:25;44.70;;;23.10;;
75810;SDS011;64449;50.016;19.954;2022-11-20T01:48:44;51.30;;;25.10;;
75810;SDS011;64449;50.016;19.954;2022-11-20T01:51:17;46.60;;;23.40;;
75810;SDS011;64449;50.016;19.954;2022-11-20T01:53:47;47.40;;;24.30;;
75810;SDS011;64449;50.016;19.954;2022-11-20T01:56:14;48.90;;;24.20;;
75810;SDS011;64449;50.016;19.954;2022-11-20T01:58:42;48.50;;;24.90;;
75810;SDS011;64449;50.016;19.954;2022-11-20T02:01:12;51.10;;;24.40;;
75810;SDS011;64449;50.016;19.954;2022-11-20T02:03:38;52.70;;;25.30;;
75810;SDS011;64449;50.016;19.954;2022-11-20T02:06:19;48.50;;;23.20;;
75810;SDS011;64449;50.016;19.954;2022-11-20T02:08:50;43.80;;;23.20;;
75810;SDS011;64449;50.016;19.954;2022-11-20T02:11:17;52.60;;;24.30;;
75810;SDS011;64449;50.016;19.954;2022-11-20T02:13:43;48.20;;;24.00;;
75810;SDS011;64449;50.016;19.954;2022-11-20T02:18:40;44.40;;;20.20;;
75810;SDS011;64449;50.016;19.954;2022-11-20T02:21:09;39.10;;;19.50;;
75810;SDS011;64449;50.016;19.954;2022-11-20T02:26:28;41.00;;;22.10;;
75810;SDS011;64449;50.016;19.954;2022-11-20T02:28:58;42.20;;;21.20;;
75810;SDS011;64449;50.016;19.954;2022-11-20T02:31:25;41.50;;;20.40;;
75810;SDS011;64449;50.016;19.954;2022-11-20T02:33:54;42.70;;;20.10;;
75810;SDS011;64449;50.016;19.954;2022-11-20T02:36:23;47.30;;;21.40;;
75810;SDS011;64449;50.016;19.954;2022-11-20T02:38:51;31.50;;;18.30;;
75810;SDS011;64449;50.016;19.954;2022-11-20T02:41:17;40.20;;;21.30;;
75810;SDS011;64449;50.016;19.954;2022-11-20T02:43:42;45.90;;;22.70;;
75810;SDS011;64449;50.016;19.954;2022-11-20T02:46:08;42.00;;;20.90;;
75810;SDS011;64449;50.016;19.954;2022-11-20T02:48:33;43.20;;;21.40;;
75810;SDS011;64449;50.016;19.954;2022-11-20T02:50:59;42.40;;;21.90;;
75810;SDS011;64449;50.016;19.954;2022-11-20T02:55:50;40.60;;;18.70;;
75810;SDS011;64449;50.016;19.954;2022-11-20T02:58:15;40.00;;;19.80;;
75810;SDS011;64449;50.016;19.954;2022-11-20T03:00:41;40.40;;;18.60;;
75810;SDS011;64449;50.016;19.954;2022-11-20T03:03:06;41.30;;;19.60;;
75810;SDS011;64449;50.016;19.954;2022-11-20T03:05:31;41.00;;;20.80;;
75810;SDS011;64449;50.016;19.954;2022-11-20T03:07:57;42.00;;;21.50;;
75810;SDS011;64449;50.016;19.954;2022-11-20T03:10:22;43.10;;;20.90;;
75810;SDS011;64449;50.016;19.954;2022-11-20T03:12:52;41.80;;;22.10;;
75810;SDS011;64449;50.016;19.954;2022-11-20T03:15:18;45.70;;;20.90;;
75810;SDS011;64449;50.016;19.954;2022-11-20T03:17:43;46.80;;;21.50;;
75810;SDS011;64449;50.016;19.954;2022-11-20T03:20:08;41.70;;;20.10;;
75810;SDS011;64449;50.016;19.954;2022-11-20T03:22:34;49.20;;;21.50;;
75810;SDS011;64449;50.016;19.954;2022-11-20T03:25:00;44.10;;;21.60;;
75810;SDS011;64449;50.016;19.954;2022-11-20T03:27:25;50.20;;;22.90;;
75810;SDS011;64449;50.016;19.954;2022-11-20T03:29:50;48.40;;;22.30;;
75810;SDS011;64449;50.016;19.954;2022-11-20T03:32:16;45.70;;;21.40;;
75810;SDS011;64449;50.016;19.954;2022-11-20T03:34:41;45.00;;;20.40;;
75810;SDS011;64449;50.016;19.954;2022-11-20T03:37:06;46.30;;;23.10;;
75810;SDS011;64449;50.016;19.954;2022-11-20T03:39:32;45.50;;;22.30;;
75810;SDS011;64449;50.016;19.954;2022-11-20T03:41:57;48.00;;;21.30;;
75810;SDS011;64449;50.016;19.954;2022-11-20T03:44:23;38.60;;;19.20;;
75810;SDS011;64449;50.016;19.954;2022-11-20T03:46:48;39.60;;;19.00;;
75810;SDS011;64449;50.016;19.954;2022-11-20T03:49:13;47.20;;;19.10;;
75810;SDS011;64449;50.016;19.954;2022-11-20T03:51:39;50.10;;;22.40;;
75810;SDS011;64449;50.016;19.954;2022-11-20T03:54:05;39.70;;;20.20;;
75810;SDS011;64449;50.016;19.954;2022-11-20T03:56:33;34.10;;;16.40;;
75810;SDS011;64449;50.016;19.954;2022-11-20T03:59:01;42.80;;;19.60;;
75810;SDS011;64449;50.016;19.954;2022-11-20T04:03:53;37.90;;;17.80;;
75810;SDS011;64449;50.016;19.954;2022-11-20T04:06:21;46.40;;;20.70;;
75810;SDS011;64449;50.016;19.954;2022-11-20T04:08:53;41.40;;;20.30;;
75810;SDS011;64449;50.016;19.954;2022-11-20T04:11:26;40.80;;;19.40;;
75810;SDS011;64449;50.016;19.954;2022-11-20T04:13:54;39.10;;;17.60;;
75810;SDS011;64449;50.016;19.954;2022-11-20T04:16:22;40.50;;;19.20;;
75810;SDS011;64449;50.016;19.954;2022-11-20T04:18:52;41.60;;;19.80;;
75810;SDS011;64449;50.016;19.954;2022-11-20T04:21:19;42.20;;;19.90;;
75810;SDS011;64449;50.016;19.954;2022-11-20T04:23:44;39.90;;;18.90;;
75810;SDS011;64449;50.016;19.954;2022-11-20T04:26:11;40.10;;;18.80;;
75810;SDS011;64449;50.016;19.954;2022-11-20T04:28:38;38.90;;;18.10;;
75810;SDS011;64449;50.016;19.954;2022-11-20T04:31:05;35.70;;;17.60;;
75810;SDS011;64449;50.016;19.954;2022-11-20T04:33:35;43.60;;;20.00;;
75810;SDS011;64449;50.016;19.954;2022-11-20T04:36:09;37.90;;;18.40;;
75810;SDS011;64449;50.016;19.954;2022-11-20T04:38:37;36.30;;;19.10;;
75810;SDS011;64449;50.016;19.954;2022-11-20T04:41:04;39.80;;;18.90;;
75810;SDS011;64449;50.016;19.954;2022-11-20T04:43:31;41.60;;;20.20;;
75810;SDS011;64449;50.016;19.954;2022-11-20T04:45:57;41.00;;;20.50;;
75810;SDS011;64449;50.016;19.954;2022-11-20T04:48:24;37.40;;;19.40;;
75810;SDS011;64449;50.016;19.954;2022-11-20T04:50:51;47.60;;;20.50;;
75810;SDS011;64449;50.016;19.954;2022-11-20T04:53:17;36.50;;;19.30;;
75810;SDS011;64449;50.016;19.954;2022-11-20T04:55:43;41.00;;;19.00;;
75810;SDS011;64449;50.016;19.954;2022-11-20T04:58:09;44.50;;;19.20;;
75810;SDS011;64449;50.016;19.954;2022-11-20T05:00:34;42.20;;;19.30;;
75810;SDS011;64449;50.016;19.954;2022-11-20T05:03:00;46.80;;;20.50;;
75810;SDS011;64449;50.016;19.954;2022-11-20T05:05:25;43.50;;;19.30;;
75810;SDS011;64449;50.016;19.954;2022-11-20T05:07:51;46.00;;;21.00;;
75810;SDS011;64449;50.016;19.954;2022-11-20T05:10:16;47.30;;;21.80;;
75810;SDS011;64449;50.016;19.954;2022-11-20T05:12:42;41.20;;;19.90;;
75810;SDS011;64449;50.016;19.954;2022-11-20T05:15:07;43.00;;;21.40;;
75810;SDS011;64449;50.016;19.954;2022-11-20T05:19:58;35.90;;;17.90;;
75810;SDS011;64449;50.016;19.954;2022-11-20T05:22:23;44.20;;;20.90;;
75810;SDS011;64449;50.016;19.954;2022-11-20T05:24:49;51.70;;;21.40;;
75810;SDS011;64449;50.016;19.954;2022-11-20T05:27:14;44.80;;;20.90;;
75810;SDS011;64449;50.016;19.954;2022-11-20T05:29:40;43.80;;;21.30;;
75810;SDS011;64449;50.016;19.954;2022-11-20T05:32:05;44.60;;;21.90;;
75810;SDS011;64449;50.016;19.954;2022-11-20T05:34:33;48.80;;;21.10;;
75810;SDS011;64449;50.016;19.954;2022-11-20T05:36:59;42.00;;;20.20;;
75810;SDS011;64449;50.016;19.954;2022-11-20T05:39:24;47.90;;;20.80;;
75810;SDS011;64449;50.016;19.954;2022-11-20T05:41:50;46.80;;;21.90;;
75810;SDS011;64449;50.016;19.954;2022-11-20T05:44:35;44.00;;;19.40;;
75810;SDS011;64449;50.016;19.954;2022-11-20T05:47:00;44.40;;;22.30;;
75810;SDS011;64449;50.016;19.954;2022-11-20T05:49:26;51.80;;;20.90;;
75810;SDS011;64449;50.016;19.954;2022-11-20T05:51:51;50.60;;;22.90;;
75810;SDS011;64449;50.016;19.954;2022-11-20T05:54:16;39.60;;;19.40;;
75810;SDS011;64449;50.016;19.954;2022-11-20T05:56:42;44.90;;;20.50;;
75810;SDS011;64449;50.016;19.954;2022-11-20T05:59:07;46.00;;;22.20;;
75810;SDS011;64449;50.016;19.954;2022-11-20T06:01:33;43.80;;;20.40;;
75810;SDS011;64449;50.016;19.954;2022-11-20T06:04:01;37.20;;;17.80;;
75810;SDS011;64449;50.016;19.954;2022-11-20T06:06:26;31.60;;;16.50;;
75810;SDS011;64449;50.016;19.954;2022-11-20T06:08:52;44.60;;;19.80;;
75810;SDS011;64449;50.016;19.954;2022-11-20T06:11:18;44.50;;;20.30;;
75810;SDS011;64449;50.016;19.954;2022-11-20T06:16:10;43.00;;;18.50;;
75810;SDS011;64449;50.016;19.954;2022-11-20T06:18:38;45.30;;;19.30;;
75810;SDS011;64449;50.016;19.954;2022-11-20T06:21:05;39.30;;;18.20;;
75810;SDS011;64449;50.016;19.954;2022-11-20T06:23:32;50.20;;;19.20;;
75810;SDS011;64449;50.016;19.954;2022-11-20T06:26:00;39.30;;;18.20;;
75810;SDS011;64449;50.016;19.954;2022-11-20T06:28:36;53.70;;;21.40;;
75810;SDS011;64449;50.016;19.954;2022-11-20T06:31:02;53.00;;;23.10;;
75810;SDS011;64449;50.016;19.954;2022-11-20T06:35:55;44.00;;;20.30;;
75810;SDS011;64449;50.016;19.954;2022-11-20T06:38:23;50.80;;;21.20;;
75810;SDS011;64449;50.016;19.954;2022-11-20T06:40:49;50.00;;;21.90;;
75810;SDS011;64449;50.016;19.954;2022-11-20T06:43:14;60.00;;;23.30;;
75810;SDS011;64449;50.016;19.954;2022-11-20T06:45:40;58.80;;;25.50;;
75810;SDS011;64449;50.016;19.954;2022-11-20T06:48:05;63.60;;;25.30;;
75810;SDS011;64449;50.016;19.954;2022-11-20T06:50:30;60.30;;;25.20;;
75810;SDS011;64449;50.016;19.954;2022-11-20T06:52:56;55.50;;;24.00;;
75810;SDS011;64449;50.016;19.954;2022-11-20T06:55:21;55.90;;;23.00;;
75810;SDS011;64449;50.016;19.954;2022-11-20T06:57:46;61.20;;;25.20;;
75810;SDS011;64449;50.016;19.954;2022-11-20T07:00:12;59.70;;;23.30;;
75810;SDS011;64449;50.016;19.954;2022-11-20T07:02:38;55.30;;;23.20;;
75810;SDS011;64449;50.016;19.954;2022-11-20T07:05:03;50.20;;;23.00;;
75810;SDS011;64449;50.016;19.954;2022-11-20T07:09:54;50.90;;;17.70;;
75810;SDS011;64449;50.016;19.954;2022-11-20T07:12:20;62.00;;;23.80;;
75810;SDS011;64449;50.016;19.954;2022-11-20T07:14:45;56.50;;;23.50;;
75810;SDS011;64449;50.016;19.954;2022-11-20T07:17:11;60.70;;;24.30;;
75810;SDS011;64449;50.016;19.954;2022-11-20T07:19:36;65.00;;;24.90;;
75810;SDS011;64449;50.016;19.954;2022-11-20T07:22:02;63.90;;;22.50;;
75810;SDS011;64449;50.016;19.954;2022-11-20T07:24:27;66.60;;;26.00;;
75810;SDS011;64449;50.016;19.954;2022-11-20T07:26:52;55.80;;;23.20;;
75810;SDS011;64449;50.016;19.954;2022-11-20T07:29:18;66.40;;;24.80;;
75810;SDS011;64449;50.016;19.954;2022-11-20T07:31:43;58.20;;;24.10;;
75810;SDS011;64449;50.016;19.954;2022-11-20T07:34:09;55.50;;;22.30;;
75810;SDS011;64449;50.016;19.954;2022-11-20T07:36:34;65.40;;;25.00;;
75810;SDS011;64449;50.016;19.954;2022-11-20T07:39:00;52.80;;;21.00;;
75810;SDS011;64449;50.016;19.954;2022-11-20T07:41:25;45.60;;;19.80;;
75810;SDS011;64449;50.016;19.954;2022-11-20T07:43:51;54.60;;;24.60;;
75810;SDS011;64449;50.016;19.954;2022-11-20T07:46:16;77.40;;;30.10;;
75810;SDS011;64449;50.016;19.954;2022-11-20T07:48:42;62.80;;;26.10;;
75810;SDS011;64449;50.016;19.954;2022-11-20T07:51:07;64.00;;;26.50;;
75810;SDS011;64449;50.016;19.954;2022-11-20T07:53:32;64.40;;;28.20;;
75810;SDS011;64449;50.016;19.954;2022-11-20T07:56:01;65.90;;;27.70;;
75810;SDS011;64449;50.016;19.954;2022-11-20T07:58:31;50.10;;;20.60;;
75810;SDS011;64449;50.016;19.954;2022-11-20T08:00:58;51.60;;;23.00;;
75810;SDS011;64449;50.016;19.954;2022-11-20T08:03:27;60.60;;;25.60;;
75810;SDS011;64449;50.016;19.954;2022-11-20T08:05:53;53.30;;;21.70;;
75810;SDS011;64449;50.016;19.954;2022-11-20T08:08:18;67.80;;;27.10;;
75810;SDS011;64449;50.016;19.954;2022-11-20T08:13:09;41.90;;;18.40;;
75810;SDS011;64449;50.016;19.954;2022-11-20T08:15:53;52.80;;;21.40;;
75810;SDS011;64449;50.016;19.954;2022-11-20T08:18:19;54.10;;;21.20;;
75810;SDS011;64449;50.016;19.954;2022-11-20T08:20:44;60.00;;;25.20;;
75810;SDS011;64449;50.016;19.954;2022-11-20T08:23:10;56.40;;;24.10;;
75810;SDS011;64449;50.016;19.954;2022-11-20T08:28:03;50.30;;;20.70;;
75810;SDS011;64449;50.016;19.954;2022-11-20T08:30:30;53.10;;;21.80;;
75810;SDS011;64449;50.016;19.954;2022-11-20T08:33:00;63.00;;;26.60;;
75810;SDS011;64449;50.016;19.954;2022-11-20T08:35:27;54.40;;;23.30;;
75810;SDS011;64449;50.016;19.954;2022-11-20T08:37:52;58.00;;;23.80;;
75810;SDS011;64449;50.016;19.954;2022-11-20T08:40:17;41.40;;;18.30;;
75810;SDS011;64449;50.016;19.954;2022-11-20T08:42:47;51.00;;;21.60;;
75810;SDS011;64449;50.016;19.954;2022-11-20T08:45:13;40.30;;;17.50;;
75810;SDS011;64449;50.016;19.954;2022-11-20T08:50:04;47.40;;;18.00;;
75810;SDS011;64449;50.016;19.954;2022-11-20T08:52:30;47.70;;;19.50;;
75810;SDS011;64449;50.016;19.954;2022-11-20T08:54:55;52.40;;;21.20;;
75810;SDS011;64449;50.016;19.954;2022-11-20T08:57:20;58.80;;;21.70;;
75810;SDS011;64449;50.016;19.954;2022-11-20T08:59:46;47.40;;;19.40;;
75810;SDS011;64449;50.016;19.954;2022-11-20T09:02:11;31.80;;;14.10;;
75810;SDS011;64449;50.016;19.954;2022-11-20T09:04:37;57.70;;;23.00;;
75810;SDS011;64449;50.016;19.954;2022-11-20T09:07:02;46.00;;;19.90;;
75810;SDS011;64449;50.016;19.954;2022-11-20T09:11:53;39.60;;;16.10;;
75810;SDS011;64449;50.016;19.954;2022-11-20T09:14:18;35.20;;;15.00;;
75810;SDS011;64449;50.016;19.954;2022-11-20T09:16:44;51.00;;;20.70;;
75810;SDS011;64449;50.016;19.954;2022-11-20T09:19:10;51.20;;;22.30;;
75810;SDS011;64449;50.016;19.954;2022-11-20T09:21:36;49.70;;;22.10;;
75810;SDS011;64449;50.016;19.954;2022-11-20T09:24:02;56.90;;;21.90;;
75810;SDS011;64449;50.016;19.954;2022-11-20T09:28:53;53.10;;;20.60;;
75810;SDS011;64449;50.016;19.954;2022-11-20T09:31:22;41.80;;;19.30;;
75810;SDS011;64449;50.016;19.954;2022-11-20T09:33:49;51.70;;;22.00;;
75810;SDS011;64449;50.016;19.954;2022-11-20T09:36:14;53.60;;;21.30;;
75810;SDS011;64449;50.016;19.954;2022-11-20T09:38:41;54.70;;;22.10;;
75810;SDS011;64449;50.016;19.954;2022-11-20T09:41:10;45.10;;;20.70;;
75810;SDS011;64449;50.016;19.954;2022-11-20T09:46:29;57.40;;;23.20;;
75810;SDS011;64449;50.016;19.954;2022-11-20T09:54:42;60.00;;;24.90;;
75810;SDS011;64449;50.016;19.954;2022-11-20T09:57:10;52.40;;;22.20;;
75810;SDS011;64449;50.016;19.954;2022-11-20T09:59:44;50.50;;;22.70;;
75810;SDS011;64449;50.016;19.954;2022-11-20T10:05:21;46.40;;;20.20;;
75810;SDS011;64449;50.016;19.954;2022-11-20T10:10:46;55.70;;;24.30;;
75810;SDS011;64449;50.016;19.954;2022-11-20T10:18:21;49.90;;;22.30;;
75810;SDS011;64449;50.016;19.954;2022-11-20T10:21:08;47.60;;;21.60;;
75810;SDS011;64449;50.016;19.954;2022-11-20T10:24:38;47.90;;;21.60;;
75810;SDS011;64449;50.016;19.954;2022-11-20T10:27:25;48.10;;;19.50;;
75810;SDS011;64449;50.016;19.954;2022-11-20T10:30:40;50.40;;;23.30;;
75810;SDS011;64449;50.016;19.954;2022-11-20T10:32:51;57.30;;;23.50;;
75810;SDS011;64449;50.016;19.954;2022-11-20T10:35:23;52.50;;;23.80;;
75810;SDS011;64449;50.016;19.954;2022-11-20T10:37:55;59.50;;;24.70;;
75810;SDS011;64449;50.016;19.954;2022-11-20T10:40:44;45.10;;;19.60;;
75810;SDS011;64449;50.016;19.954;2022-11-20T10:43:13;51.70;;;21.80;;
75810;SDS011;64449;50.016;19.954;2022-11-20T10:45:50;49.00;;;21.70;;
75810;SDS011;64449;50.016;19.954;2022-11-20T10:48:26;54.60;;;24.80;;
75810;SDS011;64449;50.016;19.954;2022-11-20T11:01:55;52.20;;;22.10;;
75810;SDS011;64449;50.016;19.954;2022-11-20T11:04:37;46.00;;;21.80;;
75810;SDS011;64449;50.016;19.954;2022-11-20T11:07:13;57.50;;;25.00;;
75810;SDS011;64449;50.016;19.954;2022-11-20T11:09:43;53.20;;;25.00;;
75810;SDS011;64449;50.016;19.954;2022-11-20T11:12:13;63.80;;;26.80;;
75810;SDS011;64449;50.016;19.954;2022-11-20T11:14:43;57.40;;;24.50;;
75810;SDS011;64449;50.016;19.954;2022-11-20T11:20:00;54.20;;;22.10;;
75810;SDS011;64449;50.016;19.954;2022-11-20T11:22:51;50.00;;;23.80;;
75810;SDS011;64449;50.016;19.954;2022-11-20T11:25:30;58.20;;;25.40;;
75810;SDS011;64449;50.016;19.954;2022-11-20T11:30:44;57.30;;;25.40;;
75810;SDS011;64449;50.016;19.954;2022-11-20T11:33:20;58.40;;;25.90;;
75810;SDS011;64449;50.016;19.954;2022-11-20T11:35:48;58.00;;;27.30;;
75810;SDS011;64449;50.016;19.954;2022-11-20T11:40:53;54.30;;;23.40;;
75810;SDS011;64449;50.016;19.954;2022-11-20T11:43:21;58.80;;;25.50;;
75810;SDS011;64449;50.016;19.954;2022-11-20T11:48:58;49.40;;;25.50;;
75810;SDS011;64449;50.016;19.954;2022-11-20T11:51:26;56.50;;;27.10;;
75810;SDS011;64449;50.016;19.954;2022-11-20T11:54:05;55.30;;;24.20;;
75810;SDS011;64449;50.016;19.954;2022-11-20T11:56:41;55.90;;;24.80;;
75810;SDS011;64449;50.016;19.954;2022-11-20T11:59:08;50.50;;;24.00;;
75810;SDS011;64449;50.016;19.954;2022-11-20T12:01:47;58.30;;;28.50;;
75810;SDS011;64449;50.016;19.954;2022-11-20T12:10:04;59.40;;;24.80;;
75810;SDS011;64449;50.016;19.954;2022-11-20T12:12:39;59.50;;;28.20;;
75810;SDS011;64449;50.016;19.954;2022-11-20T12:15:10;63.70;;;29.20;;
75810;SDS011;64449;50.016;19.954;2022-11-20T12:17:40;58.60;;;25.40;;
75810;SDS011;64449;50.016;19.954;2022-11-20T12:20:12;68.80;;;29.80;;
75810;SDS011;64449;50.016;19.954;2022-11-20T12:22:42;59.00;;;27.60;;
75810;SDS011;64449;50.016;19.954;2022-11-20T12:34:27;48.90;;;23.40;;
75810;SDS011;64449;50.016;19.954;2022-11-20T12:37:15;56.40;;;25.20;;
75810;SDS011;64449;50.016;19.954;2022-11-20T12:43:05;50.20;;;22.80;;
75810;SDS011;64449;50.016;19.954;2022-11-20T12:48:41;58.70;;;25.30;;
75810;SDS011;64449;50.016;19.954;2022-11-20T13:07:11;53.60;;;25.10;;
75810;SDS011;64449;50.016;19.954;2022-11-20T13:09:48;53.30;;;23.00;;
75810;SDS011;64449;50.016;19.954;2022-11-20T13:17:28;55.20;;;26.20;;
75810;SDS011;64449;50.016;19.954;2022-11-20T13:20:04;50.70;;;23.30;;
75810;SDS011;64449;50.016;19.954;2022-11-20T13:22:47;58.90;;;26.30;;
75810;SDS011;64449;50.016;19.954;2022-11-20T13:28:03;55.30;;;26.90;;
75810;SDS011;64449;50.016;19.954;2022-11-20T13:30:35;56.90;;;28.00;;
75810;SDS011;64449;50.016;19.954;2022-11-20T13:33:08;59.00;;;26.80;;
75810;SDS011;64449;50.016;19.954;2022-11-20T13:35:54;60.40;;;25.30;;
75810;SDS011;64449;50.016;19.954;2022-11-20T13:38:25;59.50;;;27.00;;
75810;SDS011;64449;50.016;19.954;2022-11-20T13:40:51;56.40;;;27.20;;
75810;SDS011;64449;50.016;19.954;2022-11-20T13:45:58;57.80;;;24.80;;
75810;SDS011;64449;50.016;19.954;2022-11-20T13:48:38;56.80;;;27.60;;
75810;SDS011;64449;50.016;19.954;2022-11-20T13:56:53;55.30;;;25.60;;
75810;SDS011;64449;50.016;19.954;2022-11-20T14:02:15;45.70;;;20.50;;
75810;SDS011;64449;50.016;19.954;2022-11-20T14:04:45;55.00;;;25.60;;
75810;SDS011;64449;50.016;19.954;2022-11-20T14:07:12;58.40;;;27.40;;
75810;SDS011;64449;50.016;19.954;2022-11-20T14:09:38;46.60;;;22.50;;
75810;SDS011;64449;50.016;19.954;2022-11-20T14:12:12;64.00;;;30.10;;
75810;SDS011;64449;50.016;19.954;2022-11-20T14:14:47;66.90;;;29.00;;
75810;SDS011;64449;50.016;19.954;2022-11-20T14:19:48;66.40;;;31.30;;
75810;SDS011;64449;50.016;19.954;2022-11-20T14:22:22;65.40;;;28.30;;
75810;SDS011;64449;50.016;19.954;2022-11-20T14:24:59;48.10;;;24.10;;
75810;SDS011;64449;50.016;19.954;2022-11-20T14:27:57;62.90;;;28.00;;
75810;SDS011;64449;50.016;19.954;2022-11-20T14:30:26;62.10;;;27.90;;
75810;SDS011;64449;50.016;19.954;2022-11-20T14:32:54;60.70;;;25.20;;
75810;SDS011;64449;50.016;19.954;2022-11-20T14:37:51;53.80;;;25.20;;
75810;SDS011;64449;50.016;19.954;2022-11-20T14:40:30;51.00;;;26.80;;
75810;SDS011;64449;50.016;19.954;2022-11-20T14:42:57;62.90;;;29.00;;
75810;SDS011;64449;50.016;19.954;2022-11-20T14:45:24;57.90;;;26.20;;
75810;SDS011;64449;50.016;19.954;2022-11-20T14:47:51;55.30;;;26.70;;
75810;SDS011;64449;50.016;19.954;2022-11-20T14:50:19;56.20;;;25.20;;
75810;SDS011;64449;50.016;19.954;2022-11-20T14:52:51;60.40;;;27.10;;
75810;SDS011;64449;50.016;19.954;2022-11-20T14:55:25;59.30;;;28.70;;
75810;SDS011;64449;50.016;19.954;2022-11-20T14:57:55;58.20;;;27.70;;
75810;SDS011;64449;50.016;19.954;2022-11-20T15:00:22;60.50;;;27.90;;
75810;SDS011;64449;50.016;19.954;2022-11-20T15:02:49;62.50;;;26.90;;
75810;SDS011;64449;50.016;19.954;2022-11-20T15:05:17;64.60;;;29.40;;
75810;SDS011;64449;50.016;19.954;2022-11-20T15:07:45;61.30;;;27.80;;
75810;SDS011;64449;50.016;19.954;2022-11-20T15:10:34;62.30;;;28.80;;
75810;SDS011;64449;50.016;19.954;2022-11-20T15:13:03;62.80;;;28.20;;
75810;SDS011;64449;50.016;19.954;2022-11-20T15:15:50;62.00;;;28.90;;
75810;SDS011;64449;50.016;19.954;2022-11-20T15:18:59;59.00;;;28.00;;
75810;SDS011;64449;50.016;19.954;2022-11-20T15:21:12;63.30;;;28.50;;
75810;SDS011;64449;50.016;19.954;2022-11-20T15:23:39;62.00;;;28.60;;
75810;SDS011;64449;50.016;19.954;2022-11-20T15:26:05;54.50;;;27.40;;
75810;SDS011;64449;50.016;19.954;2022-11-20T15:28:41;53.90;;;26.00;;
75810;SDS011;64449;50.016;19.954;2022-11-20T15:31:10;52.30;;;25.30;;
75810;SDS011;64449;50.016;19.954;2022-11-20T15:33:37;59.10;;;26.50;;
75810;SDS011;64449;50.016;19.954;2022-11-20T15:36:02;47.60;;;22.60;;
75810;SDS011;64449;50.016;19.954;2022-11-20T15:38:28;65.90;;;31.30;;
75810;SDS011;64449;50.016;19.954;2022-11-20T15:40:53;62.60;;;29.50;;
75810;SDS011;64449;50.016;19.954;2022-11-20T15:43:19;65.70;;;29.40;;
75810;SDS011;64449;50.016;19.954;2022-11-20T15:45:48;65.00;;;32.00;;
75810;SDS011;64449;50.016;19.954;2022-11-20T15:48:23;79.50;;;35.30;;
75810;SDS011;64449;50.016;19.954;2022-11-20T15:53:30;63.90;;;32.30;;
75810;SDS011;64449;50.016;19.954;2022-11-20T15:55:56;70.60;;;32.30;;
75810;SDS011;64449;50.016;19.954;2022-11-20T16:00:49;65.40;;;29.90;;
75810;SDS011;64449;50.016;19.954;2022-11-20T16:03:15;69.50;;;32.00;;
75810;SDS011;64449;50.016;19.954;2022-11-20T16:05:41;67.60;;;30.90;;
75810;SDS011;64449;50.016;19.954;2022-11-20T16:08:07;68.60;;;33.40;;
75810;SDS011;64449;50.016;19.954;2022-11-20T16:10:32;65.20;;;30.50;;
75810;SDS011;64449;50.016;19.954;2022-11-20T16:12:58;63.90;;;31.90;;
75810;SDS011;64449;50.016;19.954;2022-11-20T16:15:43;64.80;;;30.10;;
75810;SDS011;64449;50.016;19.954;2022-11-20T16:18:18;66.30;;;30.40;;
75810;SDS011;64449;50.016;19.954;2022-11-20T16:20:45;62.70;;;29.70;;
75810;SDS011;64449;50.016;19.954;2022-11-20T16:23:12;70.10;;;32.90;;
75810;SDS011;64449;50.016;19.954;2022-11-20T16:25:38;70.10;;;32.20;;
75810;SDS011;64449;50.016;19.954;2022-11-20T16:28:03;67.10;;;30.40;;
75810;SDS011;64449;50.016;19.954;2022-11-20T16:30:30;71.10;;;34.30;;
75810;SDS011;64449;50.016;19.954;2022-11-20T16:32:57;42.70;;;21.80;;
75810;SDS011;64449;50.016;19.954;2022-11-20T16:35:25;59.30;;;27.20;;
75810;SDS011;64449;50.016;19.954;2022-11-20T16:37:51;64.70;;;27.60;;
75810;SDS011;64449;50.016;19.954;2022-11-20T16:40:16;58.20;;;27.90;;